Time;durP1;ratioP1;P1;durP2;ratioP2;P2;SDS_P1;SDS_P2;PMS_P1;PMS_P2;Temp;Humidity;BMP_temperature;BMP_pressure;BME280_temperature;BME280_humidity;BME280_pressure;Samples;Min_cycle;Max_cycle;Signal;HPM_P1;HPM_P2
2021/06/06 00:01:04;;;;;;;22.52;11.50;;;;;;;6.72;65.10;100199.48;1773400;79;20926;-67
2021/06/06 00:03:38;;;;;;;17.65;11.65;;;;;;;6.68;65.17;100200.02;1779137;79;20891;-67
2021/06/06 00:06:10;;;;;;;14.03;9.80;;;;;;;6.67;65.22;100193.58;1771876;79;20932;-67
2021/06/06 00:08:37;;;;;;;18.40;11.05;;;;;;;6.68;65.29;100193.98;1772917;79;20937;-67
2021/06/06 00:11:09;;;;;;;18.75;10.53;;;;;;;6.64;65.32;100197.55;1774352;79;21433;-67
2021/06/06 00:13:39;;;;;;;17.15;10.70;;;;;;;6.59;65.40;100199.39;1769368;79;20875;-68
2021/06/06 00:16:09;;;;;;;15.55;10.95;;;;;;;6.51;65.56;100202.16;1772885;79;20865;-67
2021/06/06 00:18:36;;;;;;;17.87;11.85;;;;;;;6.45;65.76;100199.26;1776139;79;20888;-67
2021/06/06 00:21:04;;;;;;;15.60;11.70;;;;;;;6.42;65.81;100205.81;1780091;79;20918;-67
2021/06/06 00:23:32;;;;;;;22.90;14.38;;;;;;;6.36;65.87;100205.95;1787068;79;21264;-68
2021/06/06 00:26:00;;;;;;;25.40;14.58;;;;;;;6.35;65.95;100208.12;1772391;79;21445;-67
2021/06/06 00:28:27;;;;;;;26.95;15.93;;;;;;;6.32;66.02;100206.89;1797071;79;20923;-67
2021/06/06 00:30:53;;;;;;;22.65;15.60;;;;;;;6.29;66.10;100204.38;1791311;79;21455;-67
2021/06/06 00:33:20;;;;;;;21.60;15.80;;;;;;;6.24;66.15;100204.91;1792815;79;21483;-67
2021/06/06 00:35:47;;;;;;;22.30;15.03;;;;;;;6.19;66.18;100205.45;1788937;79;21477;-67
2021/06/06 00:38:13;;;;;;;23.95;16.17;;;;;;;6.19;66.36;100205.45;1779262;78;21473;-67
2021/06/06 00:40:40;;;;;;;22.32;15.95;;;;;;;6.18;66.43;100203.75;1776271;78;20957;-67
2021/06/06 00:43:08;;;;;;;29.48;14.50;;;;;;;6.19;66.52;100210.64;1781502;79;20908;-66
2021/06/06 00:45:36;;;;;;;23.92;15.53;;;;;;;6.21;66.62;100208.88;1790223;79;20868;-67
2021/06/06 00:48:08;;;;;;;21.27;15.30;;;;;;;6.19;66.70;100202.86;1793956;79;21453;-67
2021/06/06 00:50:39;;;;;;;22.25;14.23;;;;;;;6.18;66.75;100211.08;1793715;79;20900;-67
2021/06/06 00:53:26;;;;;;;20.68;14.47;;;;;;;6.16;66.81;100202.92;1797472;78;21587;-67
2021/06/06 00:55:53;;;;;;;23.40;15.00;;;;;;;6.15;66.91;100203.82;1774616;79;20886;-67
2021/06/06 00:58:21;;;;;;;27.73;14.83;;;;;;;6.15;67.00;100206.41;1763015;80;20904;-67
2021/06/06 01:00:51;;;;;;;26.77;15.05;;;;;;;6.13;67.06;100200.40;1780325;78;21564;-67
2021/06/06 01:03:22;;;;;;;21.23;14.80;;;;;;;6.10;67.09;100206.50;1789829;79;20900;-68
2021/06/06 01:05:57;;;;;;;20.45;14.33;;;;;;;6.10;67.13;100208.25;1771498;79;20947;-67
2021/06/06 01:08:25;;;;;;;20.10;14.35;;;;;;;6.10;67.16;100211.69;1782199;78;20883;-67
2021/06/06 01:10:55;;;;;;;;;;;;;;;6.08;67.25;100199.64;1775868;80;20898;-67
2021/06/06 01:13:29;;;;;;;25.20;14.15;;;;;;;6.02;67.46;100200.20;1775864;78;21048;-67
2021/06/06 01:16:04;;;;;;;21.20;14.05;;;;;;;6.02;67.50;100206.69;1762194;80;20895;-67
2021/06/06 01:18:36;;;;;;;15.35;13.00;;;;;;;6.01;67.55;100207.55;1770374;79;21458;-67
2021/06/06 01:21:56;;;;;;;24.60;12.80;;;;;;;6.00;67.68;100206.30;1780490;79;21465;-67
2021/06/06 01:24:36;;;;;;;18.98;11.28;;;;;;;6.02;67.59;100205.39;1779519;79;21492;-67
2021/06/06 01:27:13;;;;;;;19.45;11.30;;;;;;;5.99;67.58;100206.75;1700382;82;21233;-67
2021/06/06 01:30:00;;;;;;;22.70;15.45;;;;;;;5.97;67.63;100209.81;1704922;83;24457;-67
2021/06/06 01:32:40;;;;;;;20.40;15.50;;;;;;;5.96;67.71;100208.08;1701184;83;20946;-67
2021/06/06 01:35:27;;;;;;;20.48;13.72;;;;;;;5.95;67.95;100202.50;1700581;83;21524;-67
2021/06/06 01:38:05;;;;;;;22.42;12.58;;;;;;;5.96;68.08;100198.16;1699172;83;21548;-67
2021/06/06 01:40:34;;;;;;;24.43;12.43;;;;;;;5.95;68.14;100202.50;1714742;83;21485;-67
2021/06/06 01:43:08;;;;;;;16.50;11.28;;;;;;;5.86;68.15;100198.78;1744931;81;21008;-67
2021/06/06 01:45:40;;;;;;;14.55;10.75;;;;;;;5.80;68.14;100205.39;1750877;80;20894;-68
2021/06/06 01:48:10;;;;;;;17.02;10.35;;;;;;;5.76;68.29;100201.13;1746751;80;20965;-67
2021/06/06 01:51:07;;;;;;;19.02;11.15;;;;;;;5.73;68.36;100203.78;1746475;81;20913;-67
2021/06/06 01:53:37;;;;;;;13.85;10.58;;;;;;;5.71;68.45;100199.91;1750441;81;21057;-67
2021/06/06 01:56:06;;;;;;;19.62;10.80;;;;;;;5.70;68.54;100206.44;1718985;81;20941;-67
2021/06/06 01:58:34;;;;;;;13.75;11.10;;;;;;;5.70;68.61;100201.26;1743325;81;20906;-67
2021/06/06 02:01:18;;;;;;;18.65;11.57;;;;;;;5.70;68.63;100199.97;1743533;81;20904;-67
2021/06/06 02:03:50;;;;;;;15.63;10.23;;;;;;;5.73;68.69;100201.20;1763609;77;20888;-67
2021/06/06 02:06:21;;;;;;;14.98;11.12;;;;;;;5.77;68.78;100206.71;1803171;77;20996;-67
2021/06/06 02:08:48;;;;;;;21.50;10.78;;;;;;;5.81;68.86;100199.31;1830525;77;20896;-67
2021/06/06 02:11:23;;;;;;;15.80;11.10;;;;;;;5.81;68.81;100201.45;1834784;77;20977;-67
2021/06/06 02:14:03;;;;;;;23.35;12.80;;;;;;;5.82;68.85;100202.30;1836592;77;20938;-67
2021/06/06 02:16:35;;;;;;;16.62;11.78;;;;;;;5.83;68.92;100204.03;1832454;77;21366;-67
2021/06/06 02:19:01;;;;;;;17.65;11.97;;;;;;;5.85;69.07;100200.94;1829831;77;21024;-67
2021/06/06 02:21:28;;;;;;;22.58;11.73;;;;;;;5.86;69.06;100195.34;1832163;77;20910;-67
2021/06/06 02:23:55;;;;;;;19.65;11.50;;;;;;;5.86;69.12;100197.48;1829589;77;20906;-67
2021/06/06 02:26:36;;;;;;;23.70;12.23;;;;;;;5.86;69.16;100197.48;1828251;77;20892;-67
2021/06/06 02:29:30;;;;;;;20.88;11.00;;;;;;;5.91;69.30;100195.66;1827204;77;20951;-67
2021/06/06 02:32:14;;;;;;;25.08;11.57;;;;;;;5.95;69.37;100189.55;1821737;77;21213;-68
2021/06/06 02:34:54;;;;;;;13.65;10.53;;;;;;;5.97;69.46;100190.38;1824591;77;20900;-67
2021/06/06 02:37:29;;;;;;;14.43;10.15;;;;;;;6.02;69.48;100198.03;1821338;77;20865;-67
2021/06/06 02:40:01;;;;;;;13.10;9.00;;;;;;;6.10;69.52;100195.28;1819297;77;20896;-68
2021/06/06 02:42:34;;;;;;;17.92;9.78;;;;;;;6.14;69.49;100188.72;1823963;77;20955;-67
2021/06/06 02:45:21;;;;;;;13.68;8.68;;;;;;;6.39;69.79;100191.62;1824970;77;21480;-67
2021/06/06 02:47:49;;;;;;;8.80;7.22;;;;;;;7.13;70.19;100179.45;1825776;77;21445;-67
2021/06/06 02:50:21;;;;;;;12.93;7.80;;;;;;;8.44;70.17;100183.14;1822186;77;20864;-68
2021/06/06 02:52:53;;;;;;;7.12;5.80;;;;;;;9.68;69.76;100176.34;1815550;77;20929;-68
2021/06/06 02:55:28;;;;;;;7.58;6.17;;;;;;;10.87;69.09;100174.81;1823123;77;20953;-68
2021/06/06 02:58:16;;;;;;;7.42;5.62;;;;;;;11.93;68.40;100175.93;1820246;77;21042;-68
2021/06/06 03:00:48;;;;;;;9.18;6.37;;;;;;;12.68;67.32;100173.23;1817162;77;21457;-68
2021/06/06 03:03:26;;;;;;;8.35;6.42;;;;;;;13.30;66.48;100176.28;1828808;77;20898;-68
2021/06/06 03:05:56;;;;;;;9.38;6.78;;;;;;;13.92;66.40;100170.00;1819373;77;20904;-68
2021/06/06 03:08:23;;;;;;;10.95;6.72;;;;;;;14.75;66.10;100162.78;1823745;77;21441;-69
2021/06/06 03:10:51;;;;;;;9.83;7.17;;;;;;;15.39;65.38;100160.78;1822788;77;20993;-69
2021/06/06 03:13:31;;;;;;;9.38;7.17;;;;;;;15.82;64.78;100165.63;1823374;77;20880;-69
2021/06/06 03:16:01;;;;;;;11.00;7.05;;;;;;;16.23;64.64;100166.11;1801836;77;20937;-69
2021/06/06 03:18:32;;;;;;;9.85;7.33;;;;;;;16.80;64.42;100164.25;1822483;77;21476;-69
2021/06/06 03:21:17;;;;;;;12.68;6.80;;;;;;;17.65;64.46;100165.03;1822682;77;20902;-69
2021/06/06 03:23:49;;;;;;;10.82;7.15;;;;;;;18.66;64.00;100161.41;1820066;77;21044;-69
2021/06/06 03:26:16;;;;;;;10.55;6.70;;;;;;;19.44;62.96;100148.42;1814301;77;20910;-69
2021/06/06 03:28:43;;;;;;;8.60;7.30;;;;;;;19.78;61.92;100156.41;1828282;77;21393;-69
2021/06/06 03:31:21;;;;;;;9.98;7.65;;;;;;;20.09;61.59;100153.97;1827737;77;20898;-69
2021/06/06 03:33:58;;;;;;;7.03;6.08;;;;;;;20.57;60.99;100148.33;1819366;77;20904;-69
2021/06/06 03:36:30;;;;;;;12.37;6.12;;;;;;;20.93;60.44;100159.52;1828888;77;21455;-70
2021/06/06 03:38:58;;;;;;;9.33;6.08;;;;;;;21.23;59.73;100159.59;1826821;77;20913;-69
2021/06/06 03:41:27;;;;;;;7.55;5.60;;;;;;;21.15;58.22;100159.40;1823931;77;20969;-69
2021/06/06 03:43:55;;;;;;;8.45;6.03;;;;;;;21.06;58.13;100156.20;1820299;77;21425;-69
2021/06/06 03:46:25;;;;;;;10.32;6.03;;;;;;;21.07;57.46;100153.89;1827887;77;20947;-69
2021/06/06 03:48:51;;;;;;;8.25;6.40;;;;;;;21.35;57.30;100155.53;1823066;77;21061;-69
2021/06/06 03:51:19;;;;;;;10.55;6.53;;;;;;;21.72;56.98;100159.03;1822849;77;20842;-69
2021/06/06 03:53:46;;;;;;;8.60;6.20;;;;;;;21.99;56.29;100156.63;1826637;77;20891;-70
2021/06/06 03:56:13;;;;;;;7.87;6.05;;;;;;;22.10;55.77;100157.84;1823590;77;20932;-70
2021/06/06 03:58:41;;;;;;;7.83;6.15;;;;;;;22.27;55.48;100154.20;1819916;77;20909;-69
2021/06/06 04:01:10;;;;;;;9.90;6.40;;;;;;;22.71;55.19;100159.97;1828354;77;21019;-70
2021/06/06 04:03:37;;;;;;;9.40;6.87;;;;;;;23.18;54.80;100154.78;1829067;77;21514;-70
2021/06/06 04:06:05;;;;;;;12.03;7.60;;;;;;;23.62;54.20;100155.92;1825542;77;20900;-70
2021/06/06 04:08:32;;;;;;;8.93;6.28;;;;;;;24.16;54.30;100152.61;1825085;77;20938;-70
2021/06/06 04:10:59;;;;;;;9.68;7.05;;;;;;;24.55;53.41;100153.22;1823990;77;20859;-70
2021/06/06 04:13:26;;;;;;;9.60;7.83;;;;;;;24.95;52.97;100151.89;1828366;77;21031;-70
2021/06/06 04:15:53;;;;;;;13.62;7.70;;;;;;;25.39;52.76;100155.92;1825482;77;20898;-70
2021/06/06 04:18:28;;;;;;;12.07;8.28;;;;;;;25.73;52.09;100156.44;1820395;77;20862;-70
2021/06/06 04:20:57;;;;;;;13.30;8.05;;;;;;;26.17;51.79;100154.98;1816229;77;20916;-70
2021/06/06 04:23:24;;;;;;;13.03;8.65;;;;;;;26.67;51.58;100155.44;1826234;77;20925;-70
2021/06/06 04:25:51;;;;;;;13.70;7.83;;;;;;;27.07;50.69;100151.08;1817345;77;21963;-71
2021/06/06 04:28:21;;;;;;;12.15;9.20;;;;;;;27.41;49.96;100147.69;1818074;77;20878;-70
2021/06/06 04:30:49;;;;;;;14.43;9.73;;;;;;;27.83;50.13;100148.44;1814725;78;21885;-70
2021/06/06 04:33:16;;;;;;;14.85;10.88;;;;;;;28.38;49.81;100143.96;1815240;78;20867;-70
2021/06/06 04:35:45;;;;;;;14.73;9.93;;;;;;;29.00;49.44;100142.50;1818632;78;20898;-70
2021/06/06 04:38:16;;;;;;;13.08;8.90;;;;;;;29.69;48.92;100136.11;1823390;78;21008;-70
2021/06/06 04:40:42;;;;;;;11.95;8.03;;;;;;;30.16;47.91;100140.20;1816997;78;20896;-70
2021/06/06 04:43:10;;;;;;;7.83;6.53;;;;;;;30.33;46.72;100133.59;1818529;78;21089;-70
2021/06/06 04:45:37;;;;;;;10.65;7.50;;;;;;;30.42;46.53;100136.50;1815883;77;20892;-70
2021/06/06 04:48:21;;;;;;;8.50;7.08;;;;;;;30.28;45.07;100137.39;1822287;78;20902;-70
2021/06/06 04:50:49;;;;;;;12.03;7.17;;;;;;;29.95;44.50;100140.50;1818748;78;21008;-70
2021/06/06 04:53:16;;;;;;;12.60;8.15;;;;;;;29.76;43.92;100139.73;1820261;77;20902;-70
2021/06/06 04:55:44;;;;;;;9.08;7.10;;;;;;;29.39;43.50;100141.47;1822615;77;20884;-71
2021/06/06 04:58:17;;;;;;;12.65;6.78;;;;;;;29.40;43.19;100137.75;1820964;78;20876;-70
2021/06/06 05:00:44;;;;;;;12.50;7.17;;;;;;;29.86;43.70;100138.94;1816391;77;20891;-70
2021/06/06 05:03:13;;;;;;;11.15;5.53;;;;;;;30.37;42.74;100144.84;1817884;77;21591;-70
2021/06/06 05:05:41;;;;;;;7.97;5.95;;;;;;;30.39;41.66;100135.54;1821869;77;20970;-70
2021/06/06 05:08:07;;;;;;;5.67;4.75;;;;;;;30.29;41.59;100138.53;1818757;78;20902;-70
2021/06/06 05:10:38;;;;;;;6.33;4.72;;;;;;;30.33;40.55;100133.59;1819229;78;20898;-71
2021/06/06 05:13:06;;;;;;;3.20;2.90;;;;;;;30.33;40.55;100133.59;1811306;78;21437;-70
2021/06/06 05:15:33;;;;;;;5.55;3.37;;;;;;;30.39;39.76;100135.54;1821187;77;21921;-70
2021/06/06 05:18:00;;;;;;;5.10;2.58;;;;;;;29.44;38.86;100133.69;1818337;78;20883;-70
2021/06/06 05:20:31;;;;;;;3.20;2.17;;;;;;;29.17;39.00;100129.25;1818086;78;20902;-70
2021/06/06 05:22:58;;;;;;;6.62;2.77;;;;;;;28.28;37.99;100132.92;1816537;78;20930;-70
2021/06/06 05:25:25;;;;;;;2.87;1.70;;;;;;;27.84;38.90;100136.20;1819939;76;20966;-70
2021/06/06 05:27:52;;;;;;;2.52;1.87;;;;;;;28.03;38.08;100143.47;1834586;77;21128;-70
2021/06/06 05:30:24;;;;;;;2.90;2.20;;;;;;;27.79;37.76;100141.72;1829658;77;20971;-69
2021/06/06 05:32:52;;;;;;;2.85;2.02;;;;;;;27.53;38.41;100140.62;1833953;77;20859;-68
2021/06/06 05:35:20;;;;;;;4.40;2.05;;;;;;;27.58;37.26;100135.58;1828157;77;21464;-69
2021/06/06 05:37:47;;;;;;;2.80;1.87;;;;;;;27.03;37.43;100144.36;1804080;77;20949;-69
2021/06/06 05:40:15;;;;;;;3.37;1.90;;;;;;;26.83;37.63;100142.06;1835825;77;21049;-68
2021/06/06 05:42:44;;;;;;;4.00;1.98;;;;;;;26.96;37.26;100142.88;1826617;77;21524;-69
2021/06/06 05:45:13;;;;;;;2.95;1.77;;;;;;;26.32;36.31;100147.97;1834885;77;20914;-69
2021/06/06 05:47:40;;;;;;;2.22;1.85;;;;;;;25.84;36.47;100150.84;1828356;77;20995;-68
2021/06/06 05:50:09;;;;;;;3.50;2.37;;;;;;;25.58;36.53;100149.02;1790975;79;20863;-68
2021/06/06 05:52:35;;;;;;;2.65;2.20;;;;;;;24.94;36.52;100150.23;1778698;80;21040;-68
2021/06/06 05:55:06;;;;;;;4.95;2.40;;;;;;;25.13;37.50;100152.72;1775235;79;20952;-69
2021/06/06 05:57:32;;;;;;;3.83;2.40;;;;;;;25.67;37.39;100153.40;1751583;79;20931;-69
2021/06/06 05:59:59;;;;;;;2.72;2.33;;;;;;;26.16;37.17;100162.64;1770172;80;21438;-68
2021/06/06 06:02:25;;;;;;;3.72;2.27;;;;;;;26.34;37.28;100164.72;1770387;80;20871;-68
2021/06/06 06:04:52;;;;;;;6.37;3.37;;;;;;;26.34;36.47;100158.02;1774459;80;21090;-69
2021/06/06 06:07:19;;;;;;;8.85;3.08;;;;;;;25.54;36.78;100165.02;1765277;80;20971;-69
2021/06/06 06:09:46;;;;;;;3.15;2.83;;;;;;;25.52;37.35;100165.70;1769346;80;20908;-69
2021/06/06 06:12:12;;;;;;;8.58;3.08;;;;;;;25.62;37.32;100158.88;1771907;79;21386;-68
2021/06/06 06:14:39;;;;;;;5.65;3.10;;;;;;;25.13;36.61;100156.72;1771414;79;21516;-68
2021/06/06 06:17:06;;;;;;;6.08;2.90;;;;;;;25.11;36.76;100161.38;1775228;80;21386;-69
2021/06/06 06:19:32;;;;;;;5.15;2.95;;;;;;;25.03;37.68;100167.98;1773560;79;20947;-69
2021/06/06 06:21:59;;;;;;;4.95;2.95;;;;;;;25.53;38.01;100155.84;1766656;79;20955;-69
2021/06/06 06:24:27;;;;;;;5.47;2.47;;;;;;;25.70;37.58;100151.41;1771563;79;21492;-69
2021/06/06 06:26:55;;;;;;;8.60;2.95;;;;;;;25.86;37.07;100159.55;1772107;79;20907;-69
2021/06/06 06:29:23;;;;;;;5.75;2.87;;;;;;;25.30;37.09;100162.22;1774953;79;21864;-69
2021/06/06 06:31:52;;;;;;;7.20;2.50;;;;;;;25.53;37.53;100170.54;1777976;79;20966;-69
2021/06/06 06:34:18;;;;;;;5.65;2.33;;;;;;;25.70;36.74;100160.77;1778390;79;20930;-69
2021/06/06 06:36:46;;;;;;;3.55;2.00;;;;;;;25.78;37.48;100163.48;1771885;79;20939;-68
2021/06/06 06:39:14;;;;;;;4.40;1.90;;;;;;;26.27;37.40;100171.71;1774167;79;21459;-69
2021/06/06 06:41:41;;;;;;;4.25;1.75;;;;;;;26.06;36.70;100174.33;1775383;79;21483;-69
2021/06/06 06:44:07;;;;;;;5.03;2.00;;;;;;;25.87;36.73;100170.58;1779519;79;21936;-68
2021/06/06 06:46:34;;;;;;;3.27;1.90;;;;;;;25.82;36.73;100173.72;1777541;79;21502;-69
2021/06/06 06:49:01;;;;;;;3.98;2.30;;;;;;;25.58;36.30;100173.08;1773088;79;20926;-68
2021/06/06 06:51:28;;;;;;;3.37;1.98;;;;;;;24.81;36.02;100173.81;1771310;79;20914;-68
2021/06/06 06:53:55;;;;;;;4.95;2.00;;;;;;;24.68;37.09;100171.05;1773052;79;21842;-70
2021/06/06 06:56:28;;;;;;;3.33;2.05;;;;;;;24.49;36.51;100173.86;1775068;79;20831;-69
2021/06/06 06:58:56;;;;;;;2.50;2.20;;;;;;;24.46;36.73;100176.83;1780607;80;20885;-69
2021/06/06 07:01:25;;;;;;;2.05;1.90;;;;;;;24.21;37.22;100172.52;1788693;79;21391;-69
2021/06/06 07:03:52;;;;;;;3.35;2.12;;;;;;;23.96;36.48;100179.89;1768734;79;20914;-67
2021/06/06 07:06:20;;;;;;;4.87;2.12;;;;;;;23.58;36.87;100183.88;1788986;79;21151;-68
2021/06/06 07:08:49;;;;;;;6.97;2.58;;;;;;;23.82;37.51;100178.05;1808230;78;20859;-68
2021/06/06 07:11:19;;;;;;;5.62;2.50;;;;;;;24.08;37.33;100190.70;1774923;79;21859;-68
2021/06/06 07:13:47;;;;;;;4.05;2.08;;;;;;;24.24;37.03;100184.23;1803601;78;21441;-69
2021/06/06 07:16:14;;;;;;;4.35;2.67;;;;;;;24.03;36.89;100190.30;1799612;78;21576;-68
2021/06/06 07:18:42;;;;;;;3.98;2.20;;;;;;;23.71;37.03;100186.23;1804867;78;21421;-68
2021/06/06 07:21:17;;;;;;;7.05;3.22;;;;;;;23.70;37.17;100184.53;1802185;78;20951;-68
2021/06/06 07:23:46;;;;;;;7.47;2.90;;;;;;;23.56;37.39;100195.66;1803166;78;20927;-67
2021/06/06 07:26:19;;;;;;;4.47;2.83;;;;;;;23.05;37.48;100188.86;1792922;78;20921;-68
2021/06/06 07:28:46;;;;;;;4.83;2.50;;;;;;;22.61;37.92;100199.07;1775938;80;20946;-66
2021/06/06 07:31:14;;;;;;;8.03;2.60;;;;;;;22.19;37.91;100194.78;1777016;80;21082;-71
2021/06/06 07:33:43;;;;;;;6.50;2.75;;;;;;;21.97;38.14;100193.13;1776266;80;20921;-68
2021/06/06 07:36:14;;;;;;;5.40;3.10;;;;;;;21.97;38.57;100182.49;1778681;80;20890;-67
2021/06/06 07:38:41;;;;;;;6.22;3.12;;;;;;;22.05;38.83;100192.47;1775139;80;21391;-67
2021/06/06 07:41:08;;;;;;;4.35;2.58;;;;;;;21.62;38.50;100190.86;1777370;78;20949;-67
2021/06/06 07:43:35;;;;;;;4.22;2.75;;;;;;;21.32;39.19;100191.66;1782336;80;20987;-66
2021/06/06 07:46:03;;;;;;;;;;;;;;;21.22;39.34;100189.76;1781385;80;21448;-66
2021/06/06 07:48:29;;;;;;;7.00;3.10;;;;;;;21.01;39.73;100185.78;1787969;78;20102;-66
2021/06/06 07:50:56;;;;;;;5.10;2.92;;;;;;;20.93;39.89;100179.42;1778790;78;21460;-66
2021/06/06 07:53:23;;;;;;;5.30;3.00;;;;;;;20.88;40.11;100186.44;1784511;78;20996;-67
2021/06/06 07:55:51;;;;;;;;;;;;;;;20.79;39.92;100185.39;1782223;80;20989;-66
2021/06/06 07:58:29;;;;;;;5.05;2.67;;;;;;;20.53;40.15;100188.86;1773821;80;20105;-68
2021/06/06 08:00:56;;;;;;;6.85;2.60;;;;;;;20.34;40.56;100182.01;1781968;78;20858;-64
2021/06/06 08:03:29;;;;;;;5.42;2.92;;;;;;;20.47;41.04;100189.80;1774518;78;21326;-66
2021/06/06 08:05:51;;;;;;;6.33;2.87;;;;;;;20.84;41.23;100179.72;1781969;78;20943;-66
2021/06/06 08:08:18;;;;;;;6.85;2.60;;;;;;;20.85;41.12;100186.69;1778511;78;21044;-68
2021/06/06 08:10:49;;;;;;;4.97;2.77;;;;;;;20.94;41.36;100183.27;1777315;80;20850;-66
2021/06/06 08:13:17;;;;;;;5.78;2.20;;;;;;;20.82;41.09;100183.45;1782356;78;20891;-68
2021/06/06 08:15:44;;;;;;;4.42;2.67;;;;;;;20.52;41.25;100179.66;1776764;80;20847;-67
2021/06/06 08:18:16;;;;;;;7.72;2.60;;;;;;;20.44;41.48;100175.46;1780181;80;21427;-68
2021/06/06 08:20:50;;;;;;;3.27;2.08;;;;;;;20.74;42.17;100169.48;1770906;78;21036;-66
2021/06/06 08:23:18;;;;;;;9.48;2.17;;;;;;;21.15;41.68;100177.15;1776020;80;20955;-68
2021/06/06 08:25:45;;;;;;;3.37;2.42;;;;;;;21.07;41.47;100172.48;1777359;78;20858;-66
2021/06/06 08:28:14;;;;;;;3.90;2.40;;;;;;;21.04;41.48;100175.39;1773401;80;20931;-66
2021/06/06 08:30:46;;;;;;;2.22;1.80;;;;;;;20.96;40.85;100168.06;1768326;80;20876;-64
2021/06/06 08:33:13;;;;;;;3.47;1.77;;;;;;;20.93;41.36;100172.80;1771598;79;21089;-66
2021/06/06 08:35:41;;;;;;;;;;;;;;;20.88;40.87;100164.37;1776351;79;20888;-66
2021/06/06 08:38:08;;;;;;;3.12;1.98;;;;;;;20.74;40.84;100167.67;1771004;79;20450;-65
2021/06/06 08:41:07;;;;;;;4.60;1.82;;;;;;;20.67;40.64;100167.84;1776771;79;21967;-64
2021/06/06 08:43:51;;;;;;;3.70;2.00;;;;;;;20.58;40.96;100164.59;1752714;80;20917;-64
2021/06/06 08:46:20;;;;;;;3.10;2.02;;;;;;;20.53;40.34;100162.34;1755099;80;21067;-65
2021/06/06 08:48:47;;;;;;;2.85;1.85;;;;;;;20.31;40.63;100171.16;1757530;79;21507;-65
2021/06/06 08:51:37;;;;;;;2.05;1.85;;;;;;;20.69;40.84;100170.34;1755726;80;20910;-65
2021/06/06 08:54:29;;;;;;;2.87;1.87;;;;;;;21.10;40.60;100170.89;1761218;81;20955;-65
2021/06/06 08:57:04;;;;;;;3.47;1.77;;;;;;;21.42;40.07;100163.34;1760678;79;20911;-65
2021/06/06 08:59:43;;;;;;;2.60;1.87;;;;;;;21.70;40.08;100161.81;1760592;81;21983;-65
2021/06/06 09:02:20;;;;;;;2.92;1.85;;;;;;;22.03;40.08;100166.00;1757569;81;21431;-65
2021/06/06 09:04:48;;;;;;;9.23;2.17;;;;;;;22.33;40.16;100157.64;1756012;81;20968;-65
2021/06/06 09:07:28;;;;;;;3.92;1.60;;;;;;;22.38;39.40;100164.73;1764898;80;21466;-65
2021/06/06 09:10:00;;;;;;;3.17;1.75;;;;;;;22.36;39.37;100165.84;1757103;81;20985;-65
2021/06/06 09:12:27;;;;;;;2.15;1.80;;;;;;;21.99;37.99;100153.96;1761448;80;21048;-65
2021/06/06 09:14:55;;;;;;;4.87;1.60;;;;;;;21.65;38.64;100174.19;1758382;79;20941;-65
2021/06/06 09:17:36;;;;;;;4.22;1.72;;;;;;;21.76;38.80;100179.04;1762758;80;21810;-65
2021/06/06 09:20:08;;;;;;;6.90;1.90;;;;;;;21.86;38.54;100171.95;1756510;81;20939;-65
2021/06/06 09:22:44;;;;;;;3.67;1.67;;;;;;;22.01;38.39;100175.91;1756578;80;20934;-66
2021/06/06 09:25:28;;;;;;;4.53;1.80;;;;;;;22.27;38.51;100175.48;1757165;81;21053;-65
2021/06/06 09:28:04;;;;;;;3.52;1.77;;;;;;;22.60;38.31;100165.43;1749258;79;21027;-65
2021/06/06 09:30:32;;;;;;;2.77;1.67;;;;;;;22.98;38.45;100164.13;1748693;80;21508;-65
2021/06/06 09:33:25;;;;;;;5.40;1.92;;;;;;;23.12;37.72;100160.19;1756893;81;20954;-65
2021/06/06 09:35:56;;;;;;;2.08;1.45;;;;;;;23.10;37.86;100159.98;1746682;80;21485;-66
2021/06/06 09:38:39;;;;;;;3.25;1.62;;;;;;;23.06;37.57;100167.92;1750762;81;21043;-66
2021/06/06 09:41:20;;;;;;;6.45;1.70;;;;;;;23.06;37.59;100158.60;1748424;79;20910;-65
2021/06/06 09:44:07;;;;;;;2.52;1.47;;;;;;;23.10;37.05;100165.31;1761581;80;20914;-65
2021/06/06 09:46:36;;;;;;;;;;;;;;;23.00;36.96;100163.51;1757810;80;21042;-65
2021/06/06 09:49:17;;;;;;;3.40;1.70;;;;;;;22.91;36.52;100159.01;1771124;80;20449;-65
2021/06/06 09:51:43;;;;;;;2.42;1.98;;;;;;;22.98;36.76;100150.81;1748762;79;21032;-66
2021/06/06 09:54:30;;;;;;;3.70;1.98;;;;;;;23.04;36.74;100155.23;1754304;80;20985;-66
2021/06/06 09:57:01;;;;;;;1.80;1.52;;;;;;;23.03;36.70;100148.23;1778846;79;21906;-66
2021/06/06 09:59:34;;;;;;;1.92;1.50;;;;;;;23.19;36.92;100140.47;1750749;80;20874;-66
2021/06/06 10:02:27;;;;;;;5.65;1.80;;;;;;;23.23;36.59;100145.87;1756424;79;20976;-66
2021/06/06 10:05:11;;;;;;;4.95;1.70;;;;;;;23.19;36.84;100140.47;1765874;80;21991;-65
2021/06/06 10:07:44;;;;;;;5.55;1.80;;;;;;;23.15;36.51;100141.26;1759892;79;20917;-66
2021/06/06 10:10:21;;;;;;;2.70;1.65;;;;;;;23.04;36.58;100139.25;1759630;79;20898;-65
2021/06/06 10:12:50;;;;;;;1.92;1.52;;;;;;;23.04;36.63;100139.25;1760361;80;20918;-66
2021/06/06 10:15:25;;;;;;;5.12;1.50;;;;;;;23.03;36.78;100142.91;1760989;79;20985;-66
2021/06/06 10:17:56;;;;;;;2.62;1.37;;;;;;;23.05;36.69;100140.92;1760139;79;21248;-65
2021/06/06 10:20:36;;;;;;;4.37;1.45;;;;;;;23.06;36.74;100145.28;1758166;79;20902;-65
2021/06/06 10:23:11;;;;;;;2.72;1.77;;;;;;;22.74;36.07;100146.38;1758763;80;20913;-65
2021/06/06 10:26:01;;;;;;;8.95;2.25;;;;;;;22.59;36.67;100143.80;1762198;80;21418;-66
2021/06/06 10:28:38;;;;;;;2.87;2.00;;;;;;;22.61;36.78;100145.84;1779981;79;20958;-66
2021/06/06 10:31:16;;;;;;;2.58;1.80;;;;;;;22.55;36.70;100150.73;1777860;78;21102;-66
2021/06/06 10:34:02;;;;;;;2.83;1.60;;;;;;;22.50;36.58;100144.98;1779339;79;20937;-65
2021/06/06 10:36:34;;;;;;;2.98;2.08;;;;;;;22.40;36.13;100141.46;1796823;78;20894;-66
2021/06/06 10:39:01;;;;;;;142.07;10.60;;;;;;;22.07;36.40;100142.16;1779587;78;20903;-65
2021/06/06 10:41:35;;;;;;;2.47;1.60;;;;;;;21.92;36.67;100162.11;1773595;79;20926;-65
2021/06/06 10:44:13;;;;;;;2.95;1.98;;;;;;;21.99;36.73;100148.64;1775953;79;21857;-65
2021/06/06 10:46:57;;;;;;;4.28;1.90;;;;;;;22.15;36.72;100159.23;1749675;79;20962;-66
2021/06/06 10:49:35;;;;;;;3.72;1.82;;;;;;;22.29;36.62;100149.56;1762443;80;20859;-65
2021/06/06 10:52:32;;;;;;;2.80;1.90;;;;;;;22.47;36.78;100149.25;1755383;79;20977;-65
2021/06/06 10:55:01;;;;;;;3.58;1.98;;;;;;;22.65;36.82;100141.91;1750873;80;20930;-66
2021/06/06 10:57:37;;;;;;;5.08;1.85;;;;;;;22.77;36.78;100138.14;1758823;80;21700;-66
2021/06/06 11:00:26;;;;;;;7.67;1.77;;;;;;;22.82;36.84;100143.02;1775076;79;20905;-64
2021/06/06 11:03:01;;;;;;;4.47;1.80;;;;;;;22.82;36.92;100138.53;1773192;78;21395;-64
2021/06/06 11:05:57;;;;;;;3.87;1.98;;;;;;;22.88;36.63;100137.12;1774230;79;20927;-64
2021/06/06 11:08:34;;;;;;;6.15;1.67;;;;;;;22.88;36.40;100151.30;1776261;79;36100;-64
2021/06/06 11:11:30;;;;;;;2.33;1.70;;;;;;;22.69;36.31;100145.98;1768223;79;21177;-65
2021/06/06 11:14:14;;;;;;;3.05;1.80;;;;;;;22.65;36.42;100139.25;1775264;80;20989;-65
2021/06/06 11:16:47;;;;;;;8.88;1.75;;;;;;;22.71;36.27;100136.02;1765692;80;20923;-65
2021/06/06 11:19:22;;;;;;;4.35;2.05;;;;;;;22.76;36.50;100144.42;1773371;79;20892;-66
2021/06/06 11:21:53;;;;;;;7.55;2.10;;;;;;;22.83;36.28;100130.08;1772193;80;20906;-66
2021/06/06 11:24:43;;;;;;;4.08;1.75;;;;;;;22.87;36.17;100129.64;1768831;79;21037;-66
2021/06/06 11:27:22;;;;;;;2.75;2.08;;;;;;;22.93;36.35;100128.23;1765988;79;20998;-66
2021/06/06 11:30:06;;;;;;;4.85;1.55;;;;;;;23.03;36.30;100132.26;1768942;80;20950;-66
2021/06/06 11:33:02;;;;;;;5.17;1.52;;;;;;;23.12;36.25;100128.73;1782435;79;20941;-65
2021/06/06 11:35:40;;;;;;;3.35;1.60;;;;;;;23.06;36.08;100125.31;1774370;79;20923;-66
2021/06/06 11:38:20;;;;;;;3.02;1.87;;;;;;;23.03;36.08;100121.11;1774546;79;21098;-66
2021/06/06 11:40:51;;;;;;;2.95;1.90;;;;;;;23.04;36.00;100121.94;1773919;79;20914;-66
2021/06/06 11:43:32;;;;;;;3.02;1.35;;;;;;;23.06;36.08;100123.98;1777511;79;20974;-66
2021/06/06 11:46:22;;;;;;;2.80;1.80;;;;;;;23.04;35.60;100129.44;1771620;79;20895;-66
2021/06/06 11:49:09;;;;;;;5.92;1.92;;;;;;;22.99;35.90;100123.69;1772174;79;20955;-66